createdAt,value
2023-05-05T00:01:47.082Z,100209.23
2023-05-05T00:04:15.652Z,100205.22
2023-05-05T00:06:44.089Z,100206.66
2023-05-05T00:09:12.904Z,100186.40
2023-05-05T00:11:41.281Z,100206.23
2023-05-05T00:14:09.589Z,100191.66
2023-05-05T00:16:38.867Z,100202.40
2023-05-05T00:19:07.275Z,100202.70
2023-05-05T00:21:35.670Z,100201.90
2023-05-05T00:24:04.308Z,100202.01
2023-05-05T00:26:40.013Z,100181.28
2023-05-05T00:29:08.686Z,100164.88
2023-05-05T00:31:44.420Z,100173.49
2023-05-05T00:34:12.898Z,100172.78
2023-05-05T00:36:44.517Z,100165.99
2023-05-05T00:39:20.404Z,100187.91
2023-05-05T00:41:48.799Z,100154.70
2023-05-05T00:44:17.393Z,100185.42
2023-05-05T00:46:48.138Z,100159.53
2023-05-05T00:50:41.052Z,100163.98
2023-05-05T00:53:09.488Z,100182.98
2023-05-05T00:55:37.907Z,100179.63
2023-05-05T00:58:06.533Z,100177.77
2023-05-05T01:00:35.364Z,100179.70
2023-05-05T01:03:05.500Z,100181.70
2023-05-05T01:05:46.922Z,100181.85
2023-05-05T01:08:21.549Z,100182.04
2023-05-05T01:11:00.087Z,100183.49
2023-05-05T01:14:07.249Z,100158.16
2023-05-05T01:16:41.716Z,100170.54
2023-05-05T01:19:56.162Z,100164.54
2023-05-05T01:25:20.240Z,100159.89
2023-05-05T01:28:57.777Z,100138.39
2023-05-05T01:32:03.185Z,100158.60
2023-05-05T01:34:36.064Z,100155.09
2023-05-05T01:37:32.004Z,100167.08
2023-05-05T01:40:14.437Z,100149.86
2023-05-05T01:42:45.809Z,100147.70
2023-05-05T01:45:14.843Z,100128.88
2023-05-05T01:47:44.334Z,100155.50
2023-05-05T01:51:34.191Z,100128.98
2023-05-05T01:54:05.854Z,100165.59
2023-05-05T01:56:35.243Z,100165.59
2023-05-05T01:59:05.201Z,100164.27
2023-05-05T02:01:36.396Z,100160.73
2023-05-05T02:04:06.484Z,100166.88
2023-05-05T02:06:35.622Z,100161.70
2023-05-05T02:09:04.266Z,100162.55
2023-05-05T02:11:32.899Z,100159.86
2023-05-05T02:14:02.432Z,100162.17
2023-05-05T02:16:31.400Z,100160.89
2023-05-05T02:19:04.855Z,100164.13
2023-05-05T02:21:34.423Z,100164.54
2023-05-05T02:24:03.604Z,100162.86
2023-05-05T02:26:35.224Z,100163.41
2023-05-05T02:29:17.680Z,100162.16
2023-05-05T02:31:50.226Z,100128.98
2023-05-05T02:34:24.761Z,100159.80
2023-05-05T02:36:57.519Z,100159.46
2023-05-05T02:39:32.354Z,100157.48
2023-05-05T02:42:05.535Z,100161.66
2023-05-05T02:44:36.208Z,100163.45
2023-05-05T02:47:07.895Z,100166.31
2023-05-05T02:49:37.287Z,100168.20
2023-05-05T02:52:05.788Z,100166.36
2023-05-05T02:54:37.686Z,100168.96
2023-05-05T02:57:11.820Z,100175.98
2023-05-05T03:00:07.078Z,100174.71
2023-05-05T03:02:55.085Z,100176.46
2023-05-05T03:05:25.611Z,100184.44
2023-05-05T03:08:27.181Z,100185.71
2023-05-05T03:11:14.975Z,100189.81
2023-05-05T03:13:44.762Z,100188.97
2023-05-05T03:16:16.125Z,100188.29
2023-05-05T03:18:45.993Z,100183.90
2023-05-05T03:21:15.299Z,100178.01
2023-05-05T03:23:43.987Z,100188.98
2023-05-05T03:26:19.102Z,100193.34
2023-05-05T03:28:48.019Z,100196.23
2023-05-05T03:31:23.271Z,100189.48
2023-05-05T03:33:55.088Z,100201.11
2023-05-05T03:36:26.123Z,100204.15
2023-05-05T03:38:56.495Z,100193.85
2023-05-05T03:41:27.684Z,100204.73
2023-05-05T03:43:56.710Z,100206.02
2023-05-05T03:46:25.835Z,100209.90
2023-05-05T03:48:57.328Z,100208.58
2023-05-05T03:51:26.111Z,100206.96
2023-05-05T03:53:54.709Z,100217.52
2023-05-05T03:56:23.762Z,100213.34
2023-05-05T03:58:53.039Z,100217.64
2023-05-05T04:01:37.730Z,100218.30
2023-05-05T04:04:06.627Z,100222.26
2023-05-05T04:06:35.004Z,100221.77
2023-05-05T04:09:03.763Z,100223.92
2023-05-05T04:11:32.225Z,100227.80
2023-05-05T04:14:01.054Z,100234.05
2023-05-05T04:16:31.339Z,100226.52
2023-05-05T04:19:00.110Z,100223.71
2023-05-05T04:21:28.969Z,100225.98
2023-05-05T04:23:58.744Z,100233.81
2023-05-05T04:26:27.982Z,100233.16
2023-05-05T04:28:57.002Z,100230.98
2023-05-05T04:31:25.598Z,100235.14
2023-05-05T04:33:54.007Z,100232.60
2023-05-05T04:36:22.428Z,100239.07
2023-05-05T04:38:51.486Z,100239.55
2023-05-05T04:41:20.191Z,100231.77
2023-05-05T04:43:48.974Z,100231.00
2023-05-05T04:46:17.519Z,100240.90
2023-05-05T04:48:46.475Z,100231.77
2023-05-05T04:51:14.897Z,100240.21
2023-05-05T04:53:43.298Z,100239.43
2023-05-05T04:56:11.650Z,100240.94
2023-05-05T04:58:40.181Z,100242.71
2023-05-05T05:01:10.873Z,100243.02
2023-05-05T05:03:41.392Z,100241.60
2023-05-05T05:06:10.039Z,100241.52
2023-05-05T05:08:38.569Z,100228.02
2023-05-05T05:11:07.230Z,100248.95
2023-05-05T05:13:36.014Z,100234.21
2023-05-05T05:16:06.175Z,100234.90
2023-05-05T05:18:34.937Z,100240.86
2023-05-05T05:21:03.842Z,100243.63
2023-05-05T05:23:32.706Z,100237.58
2023-05-05T05:26:01.460Z,100247.29
2023-05-05T05:28:31.239Z,100249.34
2023-05-05T05:31:00.495Z,100250.11
2023-05-05T05:33:29.527Z,100253.13
2023-05-05T05:35:58.539Z,100252.77
2023-05-05T05:38:27.488Z,100234.33
2023-05-05T05:40:57.930Z,100241.41
2023-05-05T05:43:26.487Z,100239.71
2023-05-05T05:45:55.134Z,100247.42
2023-05-05T05:48:25.383Z,100251.08
2023-05-05T05:50:54.201Z,100252.31
2023-05-05T05:53:22.973Z,100255.25
2023-05-05T05:55:51.578Z,100256.73
2023-05-05T05:58:20.974Z,100251.83
2023-05-05T06:00:49.775Z,100237.95
2023-05-05T06:03:18.416Z,100250.02
2023-05-05T06:05:47.540Z,100245.00
2023-05-05T06:08:16.258Z,100246.23
2023-05-05T06:10:48.441Z,100243.78
2023-05-05T06:13:19.014Z,100242.10
2023-05-05T06:15:50.189Z,100233.23
2023-05-05T06:18:19.270Z,100229.38
2023-05-05T06:20:51.281Z,100239.98
2023-05-05T06:23:20.991Z,100239.70
2023-05-05T06:25:55.059Z,100239.87
2023-05-05T06:28:23.453Z,100240.52
2023-05-05T06:30:52.064Z,100232.84
2023-05-05T06:33:20.618Z,100240.23
2023-05-05T06:35:49.773Z,100243.15
2023-05-05T06:38:18.141Z,100242.30
2023-05-05T06:40:52.329Z,100244.44
2023-05-05T06:43:20.729Z,100246.14
2023-05-05T06:45:54.586Z,100232.52
2023-05-05T06:48:23.034Z,100232.25
2023-05-05T06:50:52.928Z,100226.71
2023-05-05T06:53:21.742Z,100227.92
2023-05-05T06:55:50.201Z,100232.23
2023-05-05T06:58:18.519Z,100233.73
2023-05-05T07:00:47.152Z,100225.73
2023-05-05T07:03:16.653Z,100229.20
2023-05-05T07:05:46.957Z,100230.56
2023-05-05T07:08:15.705Z,100209.65
2023-05-05T07:10:44.575Z,100228.55
2023-05-05T07:13:13.611Z,100230.02
2023-05-05T07:15:48.533Z,100219.75
2023-05-05T07:18:17.253Z,100234.13
2023-05-05T07:20:45.808Z,100230.11
2023-05-05T07:23:14.252Z,100236.35
2023-05-05T07:25:42.743Z,100222.76
2023-05-05T07:28:11.609Z,100222.30
2023-05-05T07:30:41.157Z,100233.36
2023-05-05T07:33:09.604Z,100220.59
2023-05-05T07:35:38.020Z,100231.77
2023-05-05T07:38:07.713Z,100221.30
2023-05-05T07:40:43.118Z,100233.48
2023-05-05T07:43:11.995Z,100234.52
2023-05-05T07:45:40.551Z,100225.52
2023-05-05T07:48:10.208Z,100236.92
2023-05-05T07:50:38.940Z,100225.98
2023-05-05T07:53:14.378Z,100230.95
2023-05-05T07:55:43.405Z,100234.13
2023-05-05T07:58:11.941Z,100220.96
2023-05-05T08:00:40.521Z,100215.81
2023-05-05T08:03:11.664Z,100223.18
2023-05-05T08:05:45.693Z,100213.80
2023-05-05T08:08:14.269Z,100208.36
2023-05-05T08:10:42.885Z,100204.18
2023-05-05T08:13:11.554Z,100212.58
2023-05-05T08:15:40.026Z,100209.44
2023-05-05T08:18:10.166Z,100211.36
2023-05-05T08:20:39.517Z,100214.14
2023-05-05T08:23:08.182Z,100220.20
2023-05-05T08:25:36.904Z,100223.83
2023-05-05T08:28:05.454Z,100217.39
2023-05-05T08:30:34.401Z,100217.80
2023-05-05T08:33:02.803Z,100221.55
2023-05-05T08:35:31.264Z,100202.14
2023-05-05T08:37:59.767Z,100216.98
2023-05-05T08:40:36.847Z,100214.75
2023-05-05T08:43:05.962Z,100216.10
2023-05-05T08:45:34.955Z,100199.23
2023-05-05T08:48:05.562Z,100211.11
2023-05-05T08:50:34.347Z,100191.64
2023-05-05T08:53:11.097Z,100202.14
2023-05-05T08:55:45.141Z,100201.81
2023-05-05T08:58:14.276Z,100216.01
2023-05-05T09:00:43.496Z,100215.60
2023-05-05T09:03:12.656Z,100208.95
2023-05-05T09:05:45.241Z,100209.02
2023-05-05T09:08:15.092Z,100213.48
2023-05-05T09:10:45.036Z,100216.73
2023-05-05T09:13:14.084Z,100208.16
2023-05-05T09:15:42.792Z,100210.18
2023-05-05T09:18:14.745Z,100205.41
2023-05-05T09:20:43.373Z,100207.16
2023-05-05T09:23:16.412Z,100212.12
2023-05-05T09:26:02.566Z,100200.91
2023-05-05T09:28:31.282Z,100208.33
2023-05-05T09:31:16.384Z,100205.38
2023-05-05T09:33:46.782Z,100205.60
2023-05-05T09:36:15.249Z,100194.36
2023-05-05T09:39:04.553Z,100197.07
2023-05-05T09:41:43.784Z,100196.75
2023-05-05T09:44:13.304Z,100204.38
2023-05-05T09:46:51.469Z,100206.00
2023-05-05T09:49:23.971Z,100202.75
2023-05-05T09:51:53.173Z,100200.98
2023-05-05T09:54:28.693Z,100191.91
2023-05-05T09:56:57.632Z,100193.66
2023-05-05T09:59:26.084Z,100190.45
2023-05-05T10:02:09.624Z,100192.89
2023-05-05T10:04:38.172Z,100195.55
2023-05-05T10:07:06.672Z,100189.64
2023-05-05T10:09:40.994Z,100181.46
2023-05-05T10:12:09.601Z,100169.77
2023-05-05T10:14:38.087Z,100185.87
2023-05-05T10:17:07.348Z,100189.69
2023-05-05T10:19:36.194Z,100190.21
2023-05-05T10:22:08.615Z,100185.98
2023-05-05T10:24:40.149Z,100190.35
2023-05-05T10:27:17.497Z,100183.31
2023-05-05T10:29:57.949Z,100186.09
2023-05-05T10:32:51.514Z,100185.66
2023-05-05T10:35:22.441Z,100176.66
2023-05-05T10:37:51.248Z,100175.89
2023-05-05T10:40:22.678Z,100169.77
2023-05-05T10:42:51.612Z,100160.50
2023-05-05T10:45:20.214Z,100171.97
2023-05-05T10:47:49.957Z,100171.88
2023-05-05T10:50:39.263Z,100174.23
2023-05-05T10:53:16.285Z,100157.92
2023-05-05T10:55:48.203Z,100159.59
2023-05-05T10:58:46.879Z,100160.88
2023-05-05T11:01:36.569Z,100152.36
2023-05-05T11:04:21.653Z,100155.92
2023-05-05T11:07:27.323Z,100154.47
2023-05-05T11:10:03.956Z,100138.14
2023-05-05T11:12:54.112Z,100138.26
2023-05-05T11:15:26.519Z,100150.44
2023-05-05T11:17:56.499Z,100150.69
2023-05-05T11:20:40.700Z,100151.29
2023-05-05T11:23:09.121Z,100149.26
2023-05-05T11:25:38.279Z,100146.20
2023-05-05T11:28:14.110Z,100142.41
2023-05-05T11:31:00.809Z,100145.69
2023-05-05T11:33:30.466Z,100145.56
2023-05-05T11:36:06.104Z,100133.48
2023-05-05T11:39:23.001Z,100129.83
2023-05-05T11:42:25.643Z,100117.85
2023-05-05T11:44:55.702Z,100131.95
2023-05-05T11:47:24.037Z,100126.86
2023-05-05T11:49:52.594Z,100124.05
2023-05-05T11:52:21.126Z,100118.73
2023-05-05T11:54:50.572Z,100126.36
2023-05-05T11:57:28.181Z,100125.46
2023-05-05T11:59:59.074Z,100123.46
2023-05-05T12:02:28.751Z,100128.67
2023-05-05T12:04:59.214Z,100122.52
2023-05-05T12:07:30.556Z,100122.39
2023-05-05T12:09:59.492Z,100117.38
2023-05-05T12:12:41.652Z,100115.39
2023-05-05T12:15:10.644Z,100111.17
2023-05-05T12:17:46.215Z,100110.34
2023-05-05T12:20:14.928Z,100107.70
2023-05-05T12:22:43.922Z,100102.56
2023-05-05T12:25:12.543Z,100100.52
2023-05-05T12:27:41.604Z,100092.77
2023-05-05T12:30:17.468Z,100097.26
2023-05-05T12:32:46.605Z,100095.20
2023-05-05T12:35:16.208Z,100096.92
2023-05-05T12:37:44.886Z,100097.09
2023-05-05T12:40:48.119Z,100094.17
2023-05-05T12:43:32.910Z,100099.31
2023-05-05T12:46:05.519Z,100093.48
2023-05-05T12:48:36.013Z,100097.64
2023-05-05T12:51:36.997Z,100094.03
2023-05-05T12:54:10.007Z,100092.08
2023-05-05T12:56:47.914Z,100086.90
2023-05-05T12:59:22.153Z,100088.35
2023-05-05T13:01:57.402Z,100089.30
2023-05-05T13:04:27.720Z,100083.36
2023-05-05T13:07:15.547Z,100078.95
2023-05-05T13:09:44.377Z,100079.39
2023-05-05T13:12:12.807Z,100064.66
2023-05-05T13:14:42.118Z,100072.98
2023-05-05T13:17:11.624Z,100078.09
2023-05-05T13:19:46.727Z,100077.11
2023-05-05T13:22:15.273Z,100077.95
2023-05-05T13:24:51.749Z,100074.55
2023-05-05T13:27:21.413Z,100067.65
2023-05-05T13:29:49.971Z,100062.79
2023-05-05T13:32:18.341Z,100071.99
2023-05-05T13:34:46.868Z,100073.69
2023-05-05T13:37:15.196Z,100063.38
2023-05-05T13:39:43.964Z,100074.33
2023-05-05T13:42:12.412Z,100070.30
2023-05-05T13:44:40.799Z,100068.52
2023-05-05T13:47:09.304Z,100064.48
2023-05-05T13:49:38.103Z,100065.09
2023-05-05T13:52:06.510Z,100056.23
2023-05-05T13:54:34.820Z,100064.81
2023-05-05T13:57:03.714Z,100067.43
2023-05-05T13:59:32.261Z,100065.48
2023-05-05T14:02:01.432Z,100066.37
2023-05-05T14:04:29.964Z,100064.40
2023-05-05T14:06:58.710Z,100060.08
2023-05-05T14:09:27.141Z,100061.14
2023-05-05T14:11:55.477Z,100060.04
2023-05-05T14:14:24.008Z,100058.95
2023-05-05T14:16:52.455Z,100054.71
2023-05-05T14:19:20.964Z,100055.85
2023-05-05T14:21:49.360Z,100053.95
2023-05-05T14:24:17.712Z,100052.31
2023-05-05T14:26:46.165Z,100050.73
2023-05-05T14:29:14.491Z,100047.52
2023-05-05T14:31:43.057Z,100042.73
2023-05-05T14:34:11.756Z,100043.84
2023-05-05T14:36:40.140Z,100040.80
2023-05-05T14:39:08.760Z,100037.06
2023-05-05T14:41:37.163Z,100038.23
2023-05-05T14:44:05.701Z,100039.54
2023-05-05T14:46:34.177Z,100039.77
2023-05-05T14:49:02.764Z,100039.52
2023-05-05T14:51:32.251Z,100036.50
2023-05-05T14:54:00.588Z,100033.78
2023-05-05T14:56:29.032Z,100031.88
2023-05-05T14:58:57.380Z,100037.01
2023-05-05T15:01:26.034Z,100033.71
2023-05-05T15:03:54.778Z,100034.06
2023-05-05T15:06:23.321Z,100037.45
2023-05-05T15:08:51.652Z,100034.11
2023-05-05T15:11:20.001Z,100023.55
2023-05-05T15:13:48.370Z,100031.61
2023-05-05T15:16:16.868Z,100029.84
2023-05-05T15:18:45.360Z,100026.25
2023-05-05T15:21:13.798Z,100017.10
2023-05-05T15:23:42.593Z,100018.06
2023-05-05T15:26:11.070Z,100025.81
2023-05-05T15:28:39.487Z,100019.38
2023-05-05T15:31:07.879Z,100022.67
2023-05-05T15:33:36.343Z,100018.27
2023-05-05T15:36:05.092Z,100023.38
2023-05-05T15:38:33.511Z,100018.56
2023-05-05T15:41:01.889Z,100015.95
2023-05-05T15:43:30.189Z,100014.71
2023-05-05T15:45:58.530Z,100012.29
2023-05-05T15:48:27.036Z,100010.23
2023-05-05T15:50:55.716Z,100004.56
2023-05-05T15:53:24.102Z,100006.61
2023-05-05T15:55:52.801Z,100003.55
2023-05-05T15:58:21.247Z,100004.55
2023-05-05T16:00:49.581Z,100002.69
2023-05-05T16:03:18.146Z,99999.21
2023-05-05T16:05:47.413Z,99996.05
2023-05-05T16:08:15.922Z,99996.39
2023-05-05T16:10:44.341Z,99997.55
2023-05-05T16:13:12.725Z,99995.42
2023-05-05T16:15:41.164Z,99994.82
2023-05-05T16:18:09.589Z,99996.86
2023-05-05T16:20:38.101Z,99993.75
2023-05-05T16:23:07.127Z,99991.55
2023-05-05T16:25:35.552Z,99989.34
2023-05-05T16:28:04.160Z,99991.33
2023-05-05T16:30:32.760Z,99993.02
2023-05-05T16:33:01.130Z,99996.25
2023-05-05T16:35:29.546Z,99982.13
2023-05-05T16:37:57.971Z,99997.65
2023-05-05T16:40:26.469Z,99997.71
2023-05-05T16:42:54.845Z,100004.14
2023-05-05T16:45:24.495Z,100000.33
2023-05-05T16:47:53.073Z,99999.72
2023-05-05T16:50:22.584Z,99990.84
2023-05-05T16:52:51.620Z,99998.02
2023-05-05T16:55:20.152Z,100001.62
2023-05-05T16:57:48.601Z,100001.45
2023-05-05T17:00:17.162Z,100005.84
2023-05-05T17:02:45.611Z,100005.61
2023-05-05T17:05:14.147Z,100009.63
2023-05-05T17:07:42.501Z,100003.67
2023-05-05T17:10:11.110Z,100020.48
2023-05-05T17:12:39.572Z,100015.58
2023-05-05T17:15:09.119Z,100026.20
2023-05-05T17:17:37.760Z,100025.57
2023-05-05T17:20:06.866Z,100024.41
2023-05-05T17:22:35.284Z,100017.27
2023-05-05T17:25:03.972Z,100026.25
2023-05-05T17:27:32.354Z,100023.05
2023-05-05T17:30:00.711Z,100024.86
2023-05-05T17:32:29.175Z,100029.19
2023-05-05T17:34:57.622Z,100032.46
2023-05-05T17:37:26.032Z,100032.97
2023-05-05T17:39:54.468Z,100028.69
2023-05-05T17:42:23.178Z,100031.64
2023-05-05T17:44:51.812Z,100033.14
2023-05-05T17:47:24.390Z,100037.60
2023-05-05T17:49:54.355Z,100040.20
2023-05-05T17:52:24.109Z,100043.63
2023-05-05T17:54:52.492Z,100042.22
2023-05-05T17:57:23.637Z,100038.06
2023-05-05T17:59:53.860Z,100050.22
2023-05-05T18:02:22.327Z,100054.81
2023-05-05T18:04:50.932Z,100058.09
2023-05-05T18:07:19.188Z,100060.97
2023-05-05T18:09:47.581Z,100065.43
2023-05-05T18:12:16.330Z,100065.93
2023-05-05T18:14:44.697Z,100067.02
2023-05-05T18:17:13.210Z,100066.95
2023-05-05T18:19:46.659Z,100070.45
2023-05-05T18:22:17.832Z,100069.52
2023-05-05T18:24:46.829Z,100071.54
2023-05-05T18:27:15.856Z,100072.44
2023-05-05T18:29:44.380Z,100074.80
2023-05-05T18:32:12.876Z,100074.69
2023-05-05T18:34:41.229Z,100074.03
2023-05-05T18:37:09.923Z,100077.20
2023-05-05T18:39:38.466Z,100079.97
2023-05-05T18:42:08.339Z,100085.95
2023-05-05T18:44:36.691Z,100086.05
2023-05-05T18:47:05.293Z,100081.70
2023-05-05T18:49:34.115Z,100094.03
2023-05-05T18:52:02.477Z,100094.02
2023-05-05T18:54:30.856Z,100096.13
2023-05-05T18:56:59.563Z,100093.14
2023-05-05T18:59:27.921Z,100092.76
2023-05-05T19:01:56.370Z,100092.46
2023-05-05T19:04:31.326Z,100091.08
2023-05-05T19:07:00.448Z,100088.54
2023-05-05T19:09:28.832Z,100077.76
2023-05-05T19:11:57.302Z,100089.23
2023-05-05T19:14:25.721Z,100094.21
2023-05-05T19:16:56.126Z,100084.23
2023-05-05T19:19:25.394Z,100097.91
2023-05-05T19:21:53.821Z,100101.66
2023-05-05T19:24:22.218Z,100104.39
2023-05-05T19:26:50.710Z,100100.70
2023-05-05T19:29:19.189Z,100107.36
2023-05-05T19:31:47.638Z,100099.16
2023-05-05T19:34:16.039Z,100109.92
2023-05-05T19:36:44.421Z,100104.61
2023-05-05T19:39:15.263Z,100101.95
2023-05-05T19:41:44.171Z,100109.44
2023-05-05T19:44:12.558Z,100108.98
2023-05-05T19:46:41.077Z,100103.62
2023-05-05T19:49:09.553Z,100106.38
2023-05-05T19:51:37.965Z,100097.61
2023-05-05T19:54:06.504Z,100105.36
2023-05-05T19:56:34.883Z,100108.52
2023-05-05T19:59:05.472Z,100107.36
2023-05-05T20:01:34.226Z,100112.10
2023-05-05T20:04:03.938Z,100090.52
2023-05-05T20:06:32.938Z,100107.11
2023-05-05T20:09:02.117Z,100107.00
2023-05-05T20:11:31.251Z,100106.89
2023-05-05T20:13:59.983Z,100096.47
2023-05-05T20:16:28.452Z,100107.80
2023-05-05T20:18:56.951Z,100106.74
2023-05-05T20:21:25.327Z,100098.77
2023-05-05T20:23:54.762Z,100108.16
2023-05-05T20:26:24.663Z,100108.77
2023-05-05T20:28:53.201Z,100109.33
2023-05-05T20:31:21.692Z,100110.34
2023-05-05T20:33:50.201Z,100109.79
2023-05-05T20:36:18.854Z,100115.34
2023-05-05T20:38:47.271Z,100116.03
2023-05-05T20:41:15.616Z,100108.23
2023-05-05T20:43:44.037Z,100108.51
2023-05-05T20:46:13.207Z,100115.39
2023-05-05T20:48:43.022Z,100115.41
2023-05-05T20:51:11.656Z,100109.04
2023-05-05T20:53:40.086Z,100116.80
2023-05-05T20:56:09.197Z,100118.94
2023-05-05T20:58:37.864Z,100113.30
2023-05-05T21:01:06.339Z,100112.88
2023-05-05T21:03:36.298Z,100112.83
2023-05-05T21:06:04.890Z,100112.45
2023-05-05T21:08:33.293Z,100114.55
2023-05-05T21:11:01.769Z,100114.75
2023-05-05T21:13:30.725Z,100114.95
2023-05-05T21:15:59.103Z,100117.25
2023-05-05T21:18:27.886Z,100120.94
2023-05-05T21:20:56.473Z,100118.62
2023-05-05T21:23:24.885Z,100122.25
2023-05-05T21:25:53.303Z,100123.14
2023-05-05T21:28:21.728Z,100120.55
2023-05-05T21:31:10.286Z,100120.41
2023-05-05T21:33:40.169Z,100119.17
2023-05-05T21:36:08.801Z,100118.02
2023-05-05T21:38:37.233Z,100121.19
2023-05-05T21:41:05.610Z,100110.52
2023-05-05T21:43:33.925Z,100122.98
2023-05-05T21:46:03.934Z,100116.64
2023-05-05T21:48:32.886Z,100116.73
2023-05-05T21:51:01.308Z,100120.63
2023-05-05T21:53:29.763Z,100108.23
2023-05-05T21:55:58.188Z,100119.80
2023-05-05T21:58:26.668Z,100118.97
2023-05-05T22:00:55.227Z,100121.95
2023-05-05T22:03:23.821Z,100119.30
2023-05-05T22:05:52.388Z,100121.24
2023-05-05T22:08:20.944Z,100122.84
2023-05-05T22:10:49.378Z,100124.55
2023-05-05T22:13:17.858Z,100122.55
2023-05-05T22:15:47.625Z,100125.67
2023-05-05T22:18:16.277Z,100124.44
2023-05-05T22:20:44.724Z,100121.95
2023-05-05T22:23:14.218Z,100123.05
2023-05-05T22:25:42.680Z,100124.34
2023-05-05T22:28:11.813Z,100122.38
2023-05-05T22:30:40.296Z,100125.53
2023-05-05T22:33:09.217Z,100129.42
2023-05-05T22:35:38.115Z,100129.08
2023-05-05T22:38:06.759Z,100127.38
2023-05-05T22:40:35.832Z,100126.50
2023-05-05T22:43:04.248Z,100124.65
2023-05-05T22:45:33.406Z,100125.07
2023-05-05T22:48:02.216Z,100127.02
2023-05-05T22:50:30.645Z,100126.89
2023-05-05T22:52:59.640Z,100121.31
2023-05-05T22:55:28.068Z,100125.31
2023-05-05T22:57:56.468Z,100129.05
2023-05-05T23:00:24.852Z,100125.69
2023-05-05T23:02:53.391Z,100126.70
2023-05-05T23:05:22.245Z,100124.68
2023-05-05T23:07:51.007Z,100113.36
2023-05-05T23:10:19.419Z,100121.94
2023-05-05T23:12:47.868Z,100124.19
2023-05-05T23:15:16.235Z,100124.48
2023-05-05T23:17:44.631Z,100122.65
2023-05-05T23:20:14.066Z,100123.48
2023-05-05T23:22:42.607Z,100112.56
2023-05-05T23:25:11.314Z,100124.73
2023-05-05T23:27:40.375Z,100125.98
2023-05-05T23:30:09.425Z,100126.09
2023-05-05T23:32:38.182Z,100128.09
2023-05-05T23:35:07.206Z,100128.52
2023-05-05T23:37:36.033Z,100130.19
2023-05-05T23:40:05.629Z,100122.17
2023-05-05T23:42:33.992Z,100132.04
2023-05-05T23:45:02.546Z,100130.09
2023-05-05T23:47:30.941Z,100131.13
2023-05-05T23:49:59.277Z,100127.88
2023-05-05T23:52:28.027Z,100125.90
2023-05-05T23:54:56.575Z,100128.68
2023-05-05T23:57:24.818Z,100133.14
2023-05-05T23:59:53.201Z,100131.56
